createdAt,value
2023-12-18T00:01:31.855Z,8.83
2023-12-18T00:03:58.934Z,11.18
2023-12-18T00:06:25.818Z,14.13
2023-12-18T00:08:53.963Z,14.55
2023-12-18T00:11:20.775Z,11.85
2023-12-18T00:13:50.883Z,13.73
2023-12-18T00:16:18.480Z,14.00
2023-12-18T00:18:45.447Z,11.38
2023-12-18T00:21:12.941Z,11.35
2023-12-18T00:23:40.514Z,13.15
2023-12-18T00:26:07.316Z,13.23
2023-12-18T00:28:34.888Z,12.48
2023-12-18T00:31:02.548Z,13.77
2023-12-18T00:33:29.579Z,12.38
2023-12-18T00:35:56.997Z,12.38
2023-12-18T00:38:27.489Z,13.27
2023-12-18T00:40:55.431Z,12.32
2023-12-18T00:43:22.276Z,11.00
2023-12-18T00:45:50.017Z,11.88
2023-12-18T00:48:16.958Z,11.43
2023-12-18T00:50:45.622Z,12.30
2023-12-18T00:53:14.018Z,12.70
2023-12-18T00:55:40.925Z,13.13
2023-12-18T00:58:08.064Z,15.35
2023-12-18T01:00:35.009Z,12.30
2023-12-18T01:03:02.135Z,13.77
2023-12-18T01:05:29.082Z,15.68
2023-12-18T01:07:56.041Z,14.13
2023-12-18T01:10:23.963Z,13.25
2023-12-18T01:12:50.841Z,13.73
2023-12-18T01:15:18.110Z,12.90
2023-12-18T01:17:45.326Z,14.27
2023-12-18T01:20:12.546Z,11.88
2023-12-18T01:22:39.445Z,13.50
2023-12-18T01:25:06.783Z,13.15
2023-12-18T01:27:35.700Z,13.43
2023-12-18T01:30:02.589Z,13.25
2023-12-18T01:32:34.541Z,12.07
2023-12-18T01:35:01.429Z,13.93
2023-12-18T01:37:28.315Z,12.40
2023-12-18T01:39:55.169Z,11.87
2023-12-18T01:42:23.634Z,12.80
2023-12-18T01:44:51.247Z,12.63
2023-12-18T01:47:20.622Z,14.50
2023-12-18T01:49:48.201Z,11.25
2023-12-18T01:52:15.158Z,12.00
2023-12-18T01:54:43.371Z,12.10
2023-12-18T01:57:11.047Z,12.70
2023-12-18T01:59:38.336Z,11.38
2023-12-18T02:02:05.343Z,10.52
2023-12-18T02:04:32.428Z,11.67
2023-12-18T02:07:02.677Z,11.43
2023-12-18T02:09:30.805Z,9.20
2023-12-18T02:11:57.654Z,11.68
2023-12-18T02:14:25.689Z,11.90
2023-12-18T02:16:53.066Z,10.27
2023-12-18T02:19:28.959Z,8.70
2023-12-18T02:21:57.130Z,7.82
2023-12-18T02:24:24.130Z,6.85
2023-12-18T02:26:51.415Z,7.35
2023-12-18T02:29:18.713Z,7.53
2023-12-18T02:31:45.549Z,6.63
2023-12-18T02:34:12.661Z,7.15
2023-12-18T02:36:39.641Z,5.57
2023-12-18T02:39:06.674Z,10.98
2023-12-18T02:41:33.479Z,6.47
2023-12-18T02:44:01.660Z,7.30
2023-12-18T02:46:28.429Z,7.40
2023-12-18T02:48:55.416Z,7.05
2023-12-18T02:51:22.733Z,8.13
2023-12-18T02:53:50.065Z,5.00
2023-12-18T02:56:19.222Z,5.78
2023-12-18T02:58:51.199Z,4.82
2023-12-18T03:01:18.088Z,6.45
2023-12-18T03:03:45.178Z,6.35
2023-12-18T03:06:12.709Z,5.73
2023-12-18T03:08:39.614Z,6.88
2023-12-18T03:11:06.846Z,6.97
2023-12-18T03:13:33.661Z,4.95
2023-12-18T03:16:00.534Z,5.80
2023-12-18T03:18:27.754Z,4.90
2023-12-18T03:20:55.190Z,5.88
2023-12-18T03:23:21.990Z,5.25
2023-12-18T03:25:50.773Z,5.15
2023-12-18T03:28:17.561Z,5.90
2023-12-18T03:30:46.220Z,6.53
2023-12-18T03:33:13.773Z,6.22
2023-12-18T03:35:41.127Z,4.88
2023-12-18T03:38:07.942Z,6.95
2023-12-18T03:40:35.709Z,8.52
2023-12-18T03:43:02.517Z,5.97
2023-12-18T03:45:29.449Z,7.57
2023-12-18T03:47:56.328Z,8.02
2023-12-18T03:50:23.262Z,8.90
2023-12-18T03:52:50.066Z,7.40
2023-12-18T03:55:17.717Z,9.63
2023-12-18T03:57:45.101Z,10.95
2023-12-18T04:00:12.943Z,8.23
2023-12-18T04:02:40.009Z,10.23
2023-12-18T04:05:07.606Z,9.07
2023-12-18T04:07:34.467Z,10.57
2023-12-18T04:10:01.318Z,8.27
2023-12-18T04:12:28.208Z,11.15
2023-12-18T04:14:55.069Z,9.00
2023-12-18T04:17:22.370Z,7.57
2023-12-18T04:19:49.696Z,9.50
2023-12-18T04:22:16.569Z,7.90
2023-12-18T04:24:43.512Z,9.95
2023-12-18T04:27:10.483Z,9.57
2023-12-18T04:29:37.388Z,8.52
2023-12-18T04:32:05.396Z,8.33
2023-12-18T04:34:32.424Z,8.73
2023-12-18T04:37:02.433Z,9.68
2023-12-18T04:39:30.209Z,8.98
2023-12-18T04:41:57.036Z,8.27
2023-12-18T04:44:23.875Z,9.17
2023-12-18T04:46:50.775Z,11.80
2023-12-18T04:49:17.864Z,8.75
2023-12-18T04:51:44.943Z,10.20
2023-12-18T04:54:11.812Z,11.63
2023-12-18T04:56:40.013Z,9.27
2023-12-18T04:59:07.354Z,9.35
2023-12-18T05:01:34.224Z,11.70
2023-12-18T05:04:01.322Z,10.40
2023-12-18T05:06:29.799Z,9.48
2023-12-18T05:08:58.369Z,8.90
2023-12-18T05:11:26.256Z,8.73
2023-12-18T05:13:53.436Z,9.55
2023-12-18T05:16:21.318Z,9.82
2023-12-18T05:18:48.504Z,12.45
2023-12-18T05:21:15.748Z,8.07
2023-12-18T05:23:42.636Z,10.52
2023-12-18T05:26:09.528Z,8.90
2023-12-18T05:28:36.263Z,10.40
2023-12-18T05:31:03.165Z,10.77
2023-12-18T05:33:30.134Z,14.10
2023-12-18T05:35:57.039Z,13.50
2023-12-18T05:38:23.849Z,12.25
2023-12-18T05:40:50.725Z,9.68
2023-12-18T05:43:17.622Z,11.82
2023-12-18T05:45:44.610Z,12.13
2023-12-18T05:48:11.701Z,8.77
2023-12-18T05:50:38.822Z,9.80
2023-12-18T05:53:05.612Z,7.75
2023-12-18T05:55:32.420Z,9.10
2023-12-18T05:57:59.285Z,9.40
2023-12-18T06:00:26.155Z,6.82
2023-12-18T06:02:53.015Z,10.55
2023-12-18T06:05:19.863Z,7.43
2023-12-18T06:07:47.241Z,7.43
2023-12-18T06:10:14.080Z,9.77
2023-12-18T06:12:41.205Z,9.77
2023-12-18T06:15:08.808Z,9.23
2023-12-18T06:17:35.793Z,8.45
2023-12-18T06:20:02.678Z,9.75
2023-12-18T06:22:30.444Z,9.07
2023-12-18T06:28:13.207Z,11.43
2023-12-18T06:30:40.487Z,9.85
2023-12-18T06:33:07.459Z,10.13
2023-12-18T06:36:00.016Z,10.70
2023-12-18T06:38:27.606Z,12.13
2023-12-18T06:40:54.416Z,10.52
2023-12-18T06:43:21.334Z,12.73
2023-12-18T06:45:48.199Z,11.40
2023-12-18T06:48:15.143Z,11.27
2023-12-18T06:50:43.140Z,14.85
2023-12-18T06:53:12.035Z,11.65
2023-12-18T06:55:45.183Z,17.77
2023-12-18T06:58:12.250Z,15.75
2023-12-18T07:00:41.370Z,12.67
2023-12-18T07:03:09.053Z,13.02
2023-12-18T07:05:36.408Z,16.10
2023-12-18T07:08:03.529Z,12.43
2023-12-18T07:10:30.985Z,14.15
2023-12-18T07:12:57.868Z,15.50
2023-12-18T07:15:24.860Z,17.25
2023-12-18T07:17:51.632Z,12.45
2023-12-18T07:20:18.702Z,13.43
2023-12-18T07:22:45.594Z,11.05
2023-12-18T07:25:12.443Z,13.80
2023-12-18T07:27:39.277Z,15.18
2023-12-18T07:30:07.074Z,15.38
2023-12-18T07:32:35.465Z,14.75
2023-12-18T07:35:02.964Z,12.55
2023-12-18T07:37:30.705Z,14.33
2023-12-18T07:40:02.201Z,21.42
2023-12-18T07:42:30.499Z,20.48
2023-12-18T07:44:57.292Z,15.80
2023-12-18T07:47:24.844Z,17.35
2023-12-18T07:49:52.434Z,18.73
2023-12-18T07:52:19.259Z,22.67
2023-12-18T07:54:46.589Z,20.33
2023-12-18T07:57:13.590Z,22.40
2023-12-18T07:59:41.663Z,23.17
2023-12-18T08:02:09.205Z,21.73
2023-12-18T08:04:36.807Z,23.38
2023-12-18T08:07:04.241Z,20.58
2023-12-18T08:09:31.275Z,22.63
2023-12-18T08:11:58.157Z,23.85
2023-12-18T08:14:25.741Z,26.50
2023-12-18T08:16:53.008Z,23.88
2023-12-18T08:19:20.156Z,25.00
2023-12-18T08:21:47.124Z,22.88
2023-12-18T08:24:14.078Z,24.00
2023-12-18T08:26:42.480Z,20.63
2023-12-18T08:29:10.541Z,20.83
2023-12-18T08:31:37.732Z,19.98
2023-12-18T08:34:06.220Z,19.95
2023-12-18T08:36:33.156Z,18.90
2023-12-18T08:39:04.188Z,18.97
2023-12-18T08:41:31.064Z,21.98
2023-12-18T08:44:05.065Z,17.98
2023-12-18T08:46:33.052Z,18.55
2023-12-18T08:49:00.040Z,28.60
2023-12-18T08:51:27.683Z,25.80
2023-12-18T08:53:54.606Z,19.00
2023-12-18T08:56:28.729Z,18.70
2023-12-18T08:59:00.077Z,17.63
2023-12-18T09:01:27.166Z,15.10
2023-12-18T09:03:55.594Z,13.77
2023-12-18T09:06:23.225Z,15.75
2023-12-18T09:08:50.288Z,15.95
2023-12-18T09:11:17.508Z,18.27
2023-12-18T09:13:45.078Z,14.57
2023-12-18T09:16:12.051Z,14.33
2023-12-18T09:18:38.993Z,11.45
2023-12-18T09:21:05.858Z,11.38
2023-12-18T09:23:32.650Z,10.88
2023-12-18T09:26:00.516Z,11.63
2023-12-18T09:28:27.317Z,9.97
2023-12-18T09:30:54.207Z,10.93
2023-12-18T09:33:21.746Z,11.57
2023-12-18T09:35:48.782Z,10.02
2023-12-18T09:38:17.493Z,9.98
2023-12-18T09:40:45.250Z,7.87
2023-12-18T09:43:19.581Z,8.38
2023-12-18T09:45:46.846Z,9.18
2023-12-18T09:48:16.102Z,9.00
2023-12-18T09:50:45.259Z,7.85
2023-12-18T09:53:14.473Z,8.70
2023-12-18T09:55:47.364Z,8.52
2023-12-18T09:58:14.724Z,7.55
2023-12-18T10:00:41.604Z,6.43
2023-12-18T10:03:09.795Z,10.35
2023-12-18T10:05:37.668Z,8.20
2023-12-18T10:08:05.494Z,6.90
2023-12-18T10:10:32.679Z,9.60
2023-12-18T10:13:00.918Z,9.68
2023-12-18T10:15:27.668Z,10.32
2023-12-18T10:17:55.048Z,9.93
2023-12-18T10:20:23.808Z,10.63
2023-12-18T10:22:51.170Z,12.00
2023-12-18T10:25:18.158Z,10.38
2023-12-18T10:27:47.282Z,11.68
2023-12-18T10:30:16.177Z,10.80
2023-12-18T10:32:48.376Z,14.55
2023-12-18T10:35:15.663Z,14.43
2023-12-18T10:37:54.226Z,12.32
2023-12-18T10:40:22.368Z,13.70
2023-12-18T10:43:14.233Z,11.90
2023-12-18T10:45:46.183Z,12.32
2023-12-18T10:48:13.712Z,11.57
2023-12-18T10:50:42.102Z,13.48
2023-12-18T10:53:12.190Z,13.98
2023-12-18T10:55:44.003Z,12.47
2023-12-18T10:58:12.079Z,13.93
2023-12-18T11:00:40.559Z,11.45
2023-12-18T11:03:08.196Z,16.95
2023-12-18T11:05:37.162Z,11.27
2023-12-18T11:08:05.163Z,11.17
2023-12-18T11:10:32.136Z,16.88
2023-12-18T11:13:27.762Z,14.20
2023-12-18T11:16:02.711Z,11.25
2023-12-18T11:19:12.257Z,11.18
2023-12-18T11:21:49.640Z,11.53
2023-12-18T11:24:18.605Z,11.55
2023-12-18T11:26:47.438Z,9.98
2023-12-18T11:32:50.974Z,13.90
2023-12-18T11:35:26.091Z,12.43
2023-12-18T11:37:54.337Z,10.68
2023-12-18T11:40:33.193Z,9.38
2023-12-18T11:43:00.354Z,10.20
2023-12-18T11:45:27.679Z,11.23
2023-12-18T11:47:57.235Z,9.67
2023-12-18T11:50:25.797Z,9.20
2023-12-18T11:52:56.525Z,7.13
2023-12-18T11:55:39.298Z,7.85
2023-12-18T11:58:31.389Z,6.97
2023-12-18T12:00:59.145Z,8.80
2023-12-18T12:03:27.040Z,6.65
2023-12-18T12:09:10.320Z,8.00
2023-12-18T12:11:37.117Z,9.15
2023-12-18T12:14:08.670Z,10.27
2023-12-18T12:16:35.480Z,8.48
2023-12-18T12:19:04.735Z,6.63
2023-12-18T12:21:42.339Z,9.00
2023-12-18T12:24:12.377Z,11.55
2023-12-18T12:26:39.774Z,7.73
2023-12-18T12:29:06.952Z,15.13
2023-12-18T12:31:34.121Z,10.60
2023-12-18T12:34:01.322Z,9.95
2023-12-18T12:36:28.660Z,7.35
2023-12-18T12:38:55.746Z,11.07
2023-12-18T12:41:22.757Z,8.05
2023-12-18T12:43:50.236Z,12.82
2023-12-18T12:46:22.934Z,9.80
2023-12-18T12:48:56.236Z,13.45
2023-12-18T12:51:24.514Z,18.13
2023-12-18T12:53:51.411Z,13.18
2023-12-18T12:56:19.293Z,7.35
2023-12-18T12:58:46.045Z,8.20
2023-12-18T13:01:13.758Z,7.63
2023-12-18T13:03:41.008Z,6.70
2023-12-18T13:06:07.961Z,7.22
2023-12-18T13:08:36.291Z,6.88
2023-12-18T13:11:03.176Z,5.50
2023-12-18T13:13:29.914Z,4.50
2023-12-18T13:16:00.332Z,7.53
2023-12-18T13:18:27.745Z,6.93
2023-12-18T13:20:56.445Z,5.78
2023-12-18T13:23:23.713Z,6.53
2023-12-18T13:25:51.313Z,12.80
2023-12-18T13:28:18.241Z,8.97
2023-12-18T13:30:45.238Z,8.65
2023-12-18T13:35:40.782Z,10.35
2023-12-18T13:38:09.316Z,13.57
2023-12-18T13:40:36.741Z,8.77
2023-12-18T13:43:03.570Z,7.95
2023-12-18T13:45:31.453Z,9.80
2023-12-18T13:47:59.401Z,8.43
2023-12-18T13:50:26.352Z,6.05
2023-12-18T13:52:53.423Z,13.87
2023-12-18T13:55:20.179Z,6.93
2023-12-18T13:57:49.229Z,6.20
2023-12-18T14:00:21.269Z,11.68
2023-12-18T14:02:50.935Z,12.40
2023-12-18T14:05:19.406Z,6.43
2023-12-18T14:07:46.604Z,8.35
2023-12-18T14:10:13.569Z,8.43
2023-12-18T14:15:32.980Z,8.63
2023-12-18T14:17:59.801Z,9.30
2023-12-18T14:20:27.716Z,9.07
2023-12-18T14:22:55.325Z,8.45
2023-12-18T14:25:22.175Z,7.95
2023-12-18T14:27:49.128Z,7.18
2023-12-18T14:30:19.515Z,7.57
2023-12-18T14:32:48.400Z,9.93
2023-12-18T14:35:16.064Z,14.50
2023-12-18T14:37:43.252Z,12.98
2023-12-18T14:40:11.310Z,9.25
2023-12-18T14:42:38.417Z,7.30
2023-12-18T14:45:06.379Z,8.00
2023-12-18T14:47:33.754Z,7.68
2023-12-18T14:50:01.590Z,8.00
2023-12-18T14:52:28.533Z,12.95
2023-12-18T14:54:58.827Z,9.83
2023-12-18T14:57:25.828Z,12.10
2023-12-18T14:59:52.810Z,16.85
2023-12-18T15:02:19.658Z,13.80
2023-12-18T15:04:46.809Z,8.70
2023-12-18T15:07:13.841Z,10.17
2023-12-18T15:09:40.968Z,8.68
2023-12-18T15:12:08.081Z,9.85
2023-12-18T15:14:34.888Z,9.80
2023-12-18T15:17:02.390Z,10.88
2023-12-18T15:19:29.269Z,6.80
2023-12-18T15:21:57.120Z,7.20
2023-12-18T15:24:24.049Z,6.55
2023-12-18T15:26:50.930Z,11.38
2023-12-18T15:29:21.687Z,7.72
2023-12-18T15:31:48.669Z,10.13
2023-12-18T15:34:15.611Z,9.18
2023-12-18T15:36:42.955Z,12.70
2023-12-18T15:39:09.775Z,11.70
2023-12-18T15:41:39.399Z,14.48
2023-12-18T15:44:06.450Z,19.20
2023-12-18T15:46:33.305Z,21.40
2023-12-18T15:49:00.432Z,19.65
2023-12-18T15:51:27.757Z,16.25
2023-12-18T15:53:54.679Z,17.27
2023-12-18T15:56:21.769Z,15.67
2023-12-18T15:58:48.750Z,17.45
2023-12-18T16:01:15.635Z,11.30
2023-12-18T16:03:42.711Z,13.27
2023-12-18T16:06:11.452Z,14.18
2023-12-18T16:08:38.554Z,12.80
2023-12-18T16:11:05.487Z,10.98
2023-12-18T16:13:33.452Z,12.73
2023-12-18T16:16:00.357Z,10.93
2023-12-18T16:18:27.195Z,17.42
2023-12-18T16:20:55.185Z,13.43
2023-12-18T16:23:22.031Z,15.75
2023-12-18T16:25:48.799Z,18.92
2023-12-18T16:31:06.964Z,14.68
2023-12-18T16:33:34.496Z,20.13
2023-12-18T16:36:01.605Z,19.50
2023-12-18T16:38:28.607Z,25.15
2023-12-18T16:40:55.737Z,25.38
2023-12-18T16:43:22.723Z,29.38
2023-12-18T16:45:49.691Z,23.07
2023-12-18T16:48:17.145Z,21.15
2023-12-18T16:50:44.422Z,21.08
2023-12-18T16:53:11.205Z,19.75
2023-12-18T16:55:38.521Z,18.50
2023-12-18T16:58:05.284Z,19.40
2023-12-18T17:00:32.990Z,18.63
2023-12-18T17:03:00.552Z,15.43
2023-12-18T17:05:27.915Z,14.73
2023-12-18T17:07:54.857Z,16.60
2023-12-18T17:10:22.192Z,16.83
2023-12-18T17:12:48.974Z,18.98
2023-12-18T17:15:15.970Z,16.98
2023-12-18T17:17:43.033Z,16.95
2023-12-18T17:20:10.077Z,18.92
2023-12-18T17:22:37.623Z,15.70
2023-12-18T17:25:04.790Z,16.33
2023-12-18T17:27:31.696Z,15.73
2023-12-18T17:29:58.643Z,23.52
2023-12-18T17:32:28.934Z,19.52
2023-12-18T17:35:01.107Z,16.70
2023-12-18T17:37:30.050Z,18.77
2023-12-18T17:39:56.999Z,17.67
2023-12-18T17:42:24.462Z,21.50
2023-12-18T17:44:51.252Z,18.55
2023-12-18T17:47:18.106Z,18.03
2023-12-18T17:49:46.156Z,17.20
2023-12-18T17:52:13.079Z,18.08
2023-12-18T17:54:39.996Z,18.73
2023-12-18T17:57:06.864Z,20.45
2023-12-18T17:59:34.999Z,26.63
2023-12-18T18:02:01.787Z,21.77
2023-12-18T18:04:29.097Z,21.48
2023-12-18T18:06:56.036Z,20.33
2023-12-18T18:09:24.799Z,20.40
2023-12-18T18:11:51.921Z,22.47
2023-12-18T18:14:19.042Z,22.30
2023-12-18T18:16:52.568Z,21.50
2023-12-18T18:19:20.062Z,25.33
2023-12-18T18:21:48.059Z,22.35
2023-12-18T18:24:15.013Z,21.93
2023-12-18T18:26:42.570Z,23.45
2023-12-18T18:29:13.114Z,23.58
2023-12-18T18:31:40.774Z,22.27
2023-12-18T18:34:07.728Z,22.30
2023-12-18T18:36:35.921Z,20.63
2023-12-18T18:39:04.751Z,21.80
2023-12-18T18:41:32.829Z,22.48
2023-12-18T18:44:00.646Z,21.80
2023-12-18T18:46:28.105Z,24.87
2023-12-18T18:48:55.679Z,22.17
2023-12-18T18:51:23.405Z,20.58
2023-12-18T18:53:54.564Z,20.67
2023-12-18T18:56:25.884Z,24.25
2023-12-18T18:58:54.386Z,24.97
2023-12-18T19:01:24.780Z,23.85
2023-12-18T19:03:52.122Z,25.58
2023-12-18T19:06:19.097Z,21.48
2023-12-18T19:11:37.628Z,23.97
2023-12-18T19:14:04.608Z,22.17
2023-12-18T19:16:32.116Z,22.60
2023-12-18T19:18:59.149Z,25.77
2023-12-18T19:21:26.290Z,25.08
2023-12-18T19:23:53.398Z,24.57
2023-12-18T19:26:20.686Z,24.15
2023-12-18T19:28:48.451Z,26.08
2023-12-18T19:31:16.352Z,23.27
2023-12-18T19:33:45.902Z,27.35
2023-12-18T19:36:17.420Z,27.23
2023-12-18T19:38:48.005Z,24.70
2023-12-18T19:41:21.943Z,26.25
2023-12-18T19:43:50.936Z,29.20
2023-12-18T19:46:19.049Z,24.30
2023-12-18T19:48:46.963Z,27.70
2023-12-18T19:51:15.264Z,26.92
2023-12-18T19:53:43.046Z,32.40
2023-12-18T19:56:12.113Z,29.00
2023-12-18T19:58:40.362Z,29.50
2023-12-18T20:01:08.360Z,27.77
2023-12-18T20:03:36.460Z,29.67
2023-12-18T20:06:04.422Z,26.25
2023-12-18T20:08:34.243Z,26.17
2023-12-18T20:11:01.952Z,26.48
2023-12-18T20:13:30.925Z,28.80
2023-12-18T20:15:58.943Z,30.50
2023-12-18T20:18:27.158Z,28.38
2023-12-18T20:20:54.981Z,29.48
2023-12-18T20:23:23.128Z,30.80
2023-12-18T20:25:50.908Z,28.63
2023-12-18T20:28:18.753Z,26.98
2023-12-18T20:33:37.995Z,29.75
2023-12-18T20:36:07.389Z,31.00
2023-12-18T20:38:35.981Z,30.30
2023-12-18T20:44:20.334Z,29.77
2023-12-18T20:46:48.633Z,28.45
2023-12-18T20:49:17.464Z,29.00
2023-12-18T20:51:45.171Z,29.73
2023-12-18T20:54:12.327Z,29.25
2023-12-18T20:56:39.325Z,29.77
2023-12-18T20:59:08.391Z,29.02
2023-12-18T21:01:37.048Z,27.88
2023-12-18T21:04:04.245Z,28.77
2023-12-18T21:06:31.355Z,28.30
2023-12-18T21:09:00.504Z,25.42
2023-12-18T21:11:27.583Z,27.98
2023-12-18T21:13:54.557Z,26.35
2023-12-18T21:16:23.992Z,25.33
2023-12-18T21:18:51.070Z,26.05
2023-12-18T21:21:18.713Z,24.23
2023-12-18T21:23:46.781Z,27.92
2023-12-18T21:26:13.629Z,24.45
2023-12-18T21:28:40.752Z,21.90
2023-12-18T21:31:07.807Z,25.58
2023-12-18T21:33:35.976Z,28.70
2023-12-18T21:36:03.031Z,36.55
2023-12-18T21:38:29.981Z,29.45
2023-12-18T21:40:57.015Z,32.33
2023-12-18T21:43:25.149Z,39.92
2023-12-18T21:45:53.555Z,131.85
2023-12-18T21:48:21.569Z,40.20
2023-12-18T21:50:48.588Z,45.38
2023-12-18T21:53:15.593Z,35.93
2023-12-18T21:55:42.569Z,35.67
2023-12-18T21:58:09.579Z,54.80
2023-12-18T22:00:37.248Z,45.30
2023-12-18T22:03:04.669Z,41.95
2023-12-18T22:05:31.738Z,46.00
2023-12-18T22:07:58.804Z,49.22
2023-12-18T22:10:25.908Z,49.85
2023-12-18T22:12:53.073Z,93.28
2023-12-18T22:15:20.125Z,77.40
2023-12-18T22:17:47.142Z,53.63
2023-12-18T22:20:14.147Z,58.00
2023-12-18T22:22:41.363Z,61.22
2023-12-18T22:25:09.144Z,45.15
2023-12-18T22:27:36.203Z,40.80
2023-12-18T22:30:03.447Z,44.30
2023-12-18T22:32:30.544Z,43.78
2023-12-18T22:34:57.689Z,42.47
2023-12-18T22:37:24.930Z,41.15
2023-12-18T22:39:52.015Z,42.97
2023-12-18T22:42:20.016Z,41.83
2023-12-18T22:44:47.525Z,45.60
2023-12-18T22:47:14.565Z,49.50
2023-12-18T22:49:41.790Z,44.80
2023-12-18T22:52:08.861Z,44.58
2023-12-18T22:54:36.343Z,40.00
2023-12-18T22:57:03.745Z,37.33
2023-12-18T22:59:31.897Z,40.28
2023-12-18T23:01:58.882Z,43.22
2023-12-18T23:04:27.275Z,39.42
2023-12-18T23:06:54.658Z,42.87
2023-12-18T23:09:22.545Z,37.47
2023-12-18T23:11:49.740Z,39.85
2023-12-18T23:14:18.490Z,37.85
2023-12-18T23:16:45.480Z,40.15
2023-12-18T23:19:12.740Z,34.27
2023-12-18T23:21:42.765Z,39.38
2023-12-18T23:24:10.472Z,36.42
2023-12-18T23:26:38.071Z,34.83
2023-12-18T23:29:05.544Z,34.30
2023-12-18T23:31:32.601Z,37.00
2023-12-18T23:34:00.356Z,34.20
2023-12-18T23:36:27.770Z,34.30
2023-12-18T23:38:54.759Z,31.05
2023-12-18T23:41:21.848Z,36.00
2023-12-18T23:43:49.148Z,34.20
2023-12-18T23:46:16.191Z,33.55
2023-12-18T23:48:43.301Z,36.88
2023-12-18T23:51:10.514Z,35.53
2023-12-18T23:53:37.936Z,34.45
2023-12-18T23:56:05.406Z,32.40
2023-12-18T23:58:32.355Z,33.35
